createdAt,value
2022-08-18T00:02:39.554Z,23.32
2022-08-18T00:07:47.541Z,23.31
2022-08-18T00:12:50.514Z,23.21
2022-08-18T00:17:53.559Z,23.25
2022-08-18T00:22:57.843Z,23.20
2022-08-18T00:28:00.683Z,23.19
2022-08-18T00:33:03.742Z,23.04
2022-08-18T00:38:09.448Z,23.01
2022-08-18T00:43:32.710Z,22.90
2022-08-18T00:48:35.609Z,22.68
2022-08-18T00:53:45.613Z,22.74
2022-08-18T00:58:52.274Z,22.78
2022-08-18T01:04:00.331Z,22.69
2022-08-18T01:09:04.784Z,22.68
2022-08-18T01:14:11.353Z,22.68
2022-08-18T01:19:32.125Z,22.66
2022-08-18T01:24:54.857Z,22.46
2022-08-18T01:29:58.989Z,22.42
2022-08-18T01:35:01.823Z,22.43
2022-08-18T01:41:22.245Z,22.50
2022-08-18T01:45:33.629Z,22.49
2022-08-18T01:50:39.802Z,22.51
2022-08-18T01:55:45.473Z,22.47
2022-08-18T02:00:48.190Z,22.43
2022-08-18T02:05:53.269Z,22.43
2022-08-18T02:10:58.724Z,22.31
2022-08-18T02:16:02.095Z,22.18
2022-08-18T02:21:10.390Z,22.16
2022-08-18T02:26:17.230Z,22.03
2022-08-18T02:31:24.266Z,21.90
2022-08-18T02:36:27.110Z,21.84
2022-08-18T02:41:31.247Z,21.84
2022-08-18T02:46:34.003Z,21.89
2022-08-18T02:51:36.772Z,22.01
2022-08-18T02:56:42.586Z,22.07
2022-08-18T03:01:47.045Z,22.12
2022-08-18T03:06:49.834Z,22.12
2022-08-18T03:11:54.607Z,22.08
2022-08-18T03:16:58.194Z,22.04
2022-08-18T03:22:02.878Z,22.04
2022-08-18T03:27:08.533Z,21.99
2022-08-18T03:32:11.301Z,22.03
2022-08-18T03:37:15.864Z,21.97
2022-08-18T03:42:19.983Z,21.85
2022-08-18T03:47:22.670Z,21.81
2022-08-18T03:52:25.339Z,21.72
2022-08-18T03:57:33.165Z,21.72
2022-08-18T04:02:41.843Z,21.71
2022-08-18T04:07:44.536Z,21.66
2022-08-18T04:12:48.822Z,21.63
2022-08-18T04:18:03.055Z,21.56
2022-08-18T04:23:06.862Z,21.51
2022-08-18T04:28:11.091Z,21.51
2022-08-18T04:33:13.981Z,21.54
2022-08-18T04:38:16.693Z,21.59
2022-08-18T04:43:20.913Z,21.58
2022-08-18T04:48:23.681Z,21.58
2022-08-18T04:53:43.918Z,21.60
2022-08-18T04:58:52.205Z,21.63
2022-08-18T05:03:55.954Z,21.69
2022-08-18T05:09:00.289Z,21.76
2022-08-18T05:14:06.616Z,21.83
2022-08-18T05:19:11.808Z,21.91
2022-08-18T05:24:14.566Z,22.00
2022-08-18T05:29:19.567Z,22.05
2022-08-18T05:34:23.912Z,21.90
2022-08-18T05:39:31.230Z,21.99
2022-08-18T05:44:37.006Z,22.10
2022-08-18T05:49:40.158Z,22.24
2022-08-18T05:55:04.434Z,22.45
2022-08-18T06:00:11.052Z,22.61
2022-08-18T06:05:25.386Z,22.66
2022-08-18T06:10:28.639Z,22.65
2022-08-18T06:15:39.484Z,22.68
2022-08-18T06:20:52.618Z,22.67
2022-08-18T06:26:05.338Z,22.84
2022-08-18T06:31:15.545Z,22.91
2022-08-18T06:36:24.006Z,23.01
2022-08-18T06:41:42.215Z,23.08
2022-08-18T06:46:53.849Z,23.16
2022-08-18T06:51:57.152Z,23.16
2022-08-18T06:56:59.955Z,23.27
2022-08-18T07:02:18.700Z,23.48
2022-08-18T07:07:39.509Z,23.67
2022-08-18T07:12:53.528Z,23.88
2022-08-18T07:18:04.969Z,24.02
2022-08-18T07:23:08.559Z,24.22
2022-08-18T07:28:28.682Z,24.31
2022-08-18T07:33:33.068Z,24.31
2022-08-18T07:38:43.282Z,24.32
2022-08-18T07:43:57.250Z,24.39
2022-08-18T07:49:01.878Z,24.54
2022-08-18T07:54:31.204Z,24.74
2022-08-18T07:59:38.866Z,24.85
2022-08-18T08:04:49.874Z,24.90
2022-08-18T08:09:57.932Z,24.83
2022-08-18T08:15:07.249Z,24.83
2022-08-18T08:20:17.955Z,24.95
2022-08-18T08:30:54.531Z,25.08
2022-08-18T08:36:04.692Z,25.15
2022-08-18T08:41:11.892Z,25.29
2022-08-18T08:46:17.841Z,25.34
2022-08-18T08:51:36.027Z,25.48
2022-08-18T08:56:44.368Z,25.58
2022-08-18T09:01:57.202Z,25.68
2022-08-18T09:07:14.222Z,25.57
2022-08-18T09:12:28.378Z,25.47
2022-08-18T09:17:50.886Z,25.39
2022-08-18T09:22:57.636Z,25.43
2022-08-18T09:28:12.301Z,25.67
2022-08-18T09:33:35.116Z,25.98
2022-08-18T09:39:06.853Z,26.01
2022-08-18T09:49:47.789Z,25.87
2022-08-18T09:50:37.283Z,25.94
2022-08-18T09:55:00.987Z,26.10
2022-08-18T10:00:29.202Z,26.38
2022-08-18T10:05:33.278Z,26.50
2022-08-18T10:16:15.069Z,26.56
2022-08-18T10:21:24.414Z,26.37
2022-08-18T10:27:09.004Z,26.02
2022-08-18T10:32:38.010Z,25.64
2022-08-18T10:37:44.228Z,25.51
2022-08-18T10:42:53.450Z,25.44
2022-08-18T10:48:17.357Z,25.45
2022-08-18T10:53:40.173Z,25.41
2022-08-18T10:59:05.390Z,25.35
2022-08-18T11:04:21.428Z,25.42
2022-08-18T11:09:36.915Z,25.53
2022-08-18T11:20:35.062Z,25.65
2022-08-18T11:25:39.864Z,25.70
2022-08-18T11:30:45.418Z,25.78
2022-08-18T11:35:52.397Z,25.76
2022-08-18T11:46:38.777Z,25.31
2022-08-18T11:51:55.609Z,25.26
2022-08-18T11:57:29.630Z,25.24
2022-08-18T12:02:32.468Z,25.25
2022-08-18T12:07:37.385Z,25.28
2022-08-18T12:12:46.425Z,25.21
2022-08-18T12:17:53.890Z,25.13
2022-08-18T12:22:58.296Z,25.01
2022-08-18T12:28:01.126Z,24.79
2022-08-18T12:33:08.143Z,24.58
2022-08-18T12:38:17.805Z,24.54
2022-08-18T12:43:21.344Z,24.55
2022-08-18T12:48:28.300Z,24.44
2022-08-18T12:53:58.160Z,24.42
2022-08-18T12:58:55.474Z,24.38
2022-08-18T13:04:12.534Z,24.35
2022-08-18T13:09:35.285Z,24.26
2022-08-18T13:14:41.184Z,24.25
2022-08-18T13:19:46.363Z,24.32
2022-08-18T13:24:50.783Z,24.42
2022-08-18T13:29:56.155Z,24.51
2022-08-18T13:34:59.511Z,24.46
2022-08-18T13:40:07.944Z,24.46
2022-08-18T13:45:23.309Z,24.39
2022-08-18T13:50:29.912Z,24.30
2022-08-18T13:55:34.340Z,24.21
2022-08-18T14:00:38.003Z,24.12
2022-08-18T14:05:51.258Z,24.07
2022-08-18T14:11:01.665Z,24.02
2022-08-18T14:16:05.097Z,23.93
2022-08-18T14:21:25.583Z,23.97
2022-08-18T14:26:50.546Z,24.02
2022-08-18T14:31:53.558Z,24.03
2022-08-18T14:36:57.638Z,24.03
2022-08-18T14:42:03.032Z,24.06
2022-08-18T14:47:06.379Z,24.11
2022-08-18T14:52:10.555Z,24.34
2022-08-18T14:57:18.618Z,24.57
2022-08-18T15:02:28.642Z,24.80
2022-08-18T15:07:32.825Z,25.19
2022-08-18T15:12:37.297Z,26.32
2022-08-18T15:17:41.343Z,26.66
2022-08-18T15:23:03.082Z,26.01
2022-08-18T15:28:08.352Z,25.62
2022-08-18T15:33:23.624Z,25.40
2022-08-18T15:38:27.626Z,25.27
2022-08-18T15:43:33.846Z,25.21
2022-08-18T15:48:36.655Z,25.25
2022-08-18T15:53:44.465Z,25.24
2022-08-18T15:58:49.372Z,25.20
2022-08-18T16:03:53.384Z,25.23
2022-08-18T16:08:56.329Z,25.29
2022-08-18T16:14:01.004Z,25.33
2022-08-18T16:19:05.132Z,25.27
2022-08-18T16:24:09.006Z,25.15
2022-08-18T16:29:13.056Z,25.04
2022-08-18T16:34:15.759Z,25.01
2022-08-18T16:39:18.563Z,24.96
2022-08-18T16:44:24.878Z,24.93
2022-08-18T16:49:27.754Z,24.88
2022-08-18T16:54:31.065Z,24.81
2022-08-18T17:00:04.227Z,24.81
2022-08-18T17:05:07.537Z,24.87
2022-08-18T17:10:10.487Z,24.86
2022-08-18T17:15:15.405Z,24.78
2022-08-18T17:20:19.215Z,24.73
2022-08-18T17:25:25.760Z,24.67
2022-08-18T17:30:36.803Z,24.61
2022-08-18T17:35:42.260Z,24.54
2022-08-18T17:40:47.949Z,24.44
2022-08-18T17:45:56.202Z,24.36
2022-08-18T17:51:21.044Z,24.28
2022-08-18T17:56:35.671Z,24.21
2022-08-18T18:01:42.608Z,24.14
2022-08-18T18:06:48.217Z,24.07
2022-08-18T18:11:52.430Z,23.92
2022-08-18T18:17:12.768Z,23.72
2022-08-18T18:22:20.839Z,23.58
2022-08-18T18:27:27.776Z,23.50
2022-08-18T18:32:35.241Z,23.38
2022-08-18T18:37:45.199Z,23.29
2022-08-18T18:42:50.582Z,23.29
2022-08-18T18:48:01.610Z,23.27
2022-08-18T18:53:14.110Z,23.36
2022-08-18T18:58:24.398Z,23.44
2022-08-18T19:03:34.635Z,23.43
2022-08-18T19:08:46.118Z,23.40
2022-08-18T19:13:55.117Z,23.38
2022-08-18T19:19:36.127Z,23.34
2022-08-18T19:24:26.282Z,23.28
2022-08-18T19:29:31.959Z,23.22
2022-08-18T19:34:42.445Z,23.25
2022-08-18T19:40:00.814Z,23.24
2022-08-18T19:45:16.625Z,23.24
2022-08-18T19:50:29.698Z,23.14
2022-08-18T19:55:41.551Z,23.10
2022-08-18T20:00:48.668Z,23.15
2022-08-18T20:06:14.161Z,23.07
2022-08-18T20:11:44.601Z,22.67
2022-08-18T20:17:14.470Z,22.31
2022-08-18T20:22:32.630Z,22.09
2022-08-18T20:27:38.937Z,21.84
2022-08-18T20:32:41.750Z,21.67
2022-08-18T20:37:46.116Z,21.58
2022-08-18T20:42:55.928Z,21.58
2022-08-18T20:48:23.766Z,21.38
2022-08-18T20:53:40.225Z,21.15
2022-08-18T20:58:51.405Z,21.26
2022-08-18T21:03:54.252Z,21.39
2022-08-18T21:09:04.031Z,21.41
2022-08-18T21:14:07.859Z,21.34
2022-08-18T21:19:17.984Z,21.26
2022-08-18T21:24:28.913Z,21.16
2022-08-18T21:29:44.222Z,21.25
2022-08-18T21:34:52.345Z,21.31
2022-08-18T21:39:59.346Z,21.29
2022-08-18T21:45:02.507Z,21.22
2022-08-18T21:50:11.379Z,21.15
2022-08-18T21:55:30.157Z,21.07
2022-08-18T22:00:34.905Z,20.99
2022-08-18T22:05:58.710Z,21.03
2022-08-18T22:12:00.887Z,21.18
2022-08-18T22:17:32.810Z,21.31
2022-08-18T22:22:53.438Z,21.27
2022-08-18T22:28:00.389Z,21.30
2022-08-18T22:33:03.156Z,21.36
2022-08-18T22:38:05.935Z,21.30
2022-08-18T22:43:10.382Z,21.32
2022-08-18T22:48:16.494Z,21.28
2022-08-18T22:53:19.421Z,21.31
2022-08-18T22:58:28.245Z,21.13
2022-08-18T23:03:31.365Z,21.02
2022-08-18T23:08:55.188Z,21.07
2022-08-18T23:14:00.954Z,21.04
2022-08-18T23:19:03.690Z,21.02
2022-08-18T23:24:07.149Z,20.98
2022-08-18T23:29:11.663Z,20.96
2022-08-18T23:34:17.315Z,20.91
2022-08-18T23:39:20.215Z,20.90
2022-08-18T23:44:27.810Z,20.93
2022-08-18T23:49:31.595Z,20.98
2022-08-18T23:54:36.030Z,20.98
2022-08-18T23:59:40.069Z,21.00
